createdAt,value
2022-12-20T00:01:34.725Z,74.75
2022-12-20T00:04:37.282Z,74.48
2022-12-20T00:07:39.572Z,74.36
2022-12-20T00:10:45.133Z,74.38
2022-12-20T00:13:47.499Z,74.39
2022-12-20T00:16:50.539Z,74.39
2022-12-20T00:19:52.867Z,74.45
2022-12-20T00:22:55.980Z,74.07
2022-12-20T00:26:19.867Z,74.04
2022-12-20T00:29:22.536Z,74.05
2022-12-20T00:32:24.772Z,73.63
2022-12-20T00:35:27.422Z,73.76
2022-12-20T00:38:30.309Z,73.77
2022-12-20T00:41:34.232Z,73.58
2022-12-20T00:44:36.581Z,73.50
2022-12-20T00:47:39.223Z,73.36
2022-12-20T00:50:41.524Z,73.38
2022-12-20T00:53:44.681Z,73.10
2022-12-20T00:56:46.960Z,72.99
2022-12-20T00:59:49.835Z,73.06
2022-12-20T01:02:52.273Z,73.07
2022-12-20T01:05:58.045Z,73.03
2022-12-20T01:09:00.840Z,72.91
2022-12-20T01:12:04.360Z,72.98
2022-12-20T01:15:07.380Z,73.04
2022-12-20T01:18:12.136Z,73.25
2022-12-20T01:21:16.214Z,73.18
2022-12-20T01:24:20.375Z,73.23
2022-12-20T01:27:23.036Z,73.17
2022-12-20T01:30:25.680Z,73.19
2022-12-20T01:33:28.071Z,73.19
2022-12-20T01:36:33.498Z,73.39
2022-12-20T01:39:36.367Z,73.20
2022-12-20T01:42:39.253Z,73.23
2022-12-20T01:45:41.740Z,73.30
2022-12-20T01:48:49.681Z,73.37
2022-12-20T01:52:03.914Z,73.43
2022-12-20T01:55:25.218Z,73.53
2022-12-20T01:58:27.760Z,73.56
2022-12-20T02:01:30.569Z,73.43
2022-12-20T02:04:33.525Z,73.31
2022-12-20T02:07:38.599Z,73.47
2022-12-20T02:10:57.587Z,73.31
2022-12-20T02:14:36.541Z,73.37
2022-12-20T02:18:07.513Z,73.47
2022-12-20T02:21:18.581Z,73.36
2022-12-20T02:24:42.993Z,73.35
2022-12-20T02:28:15.509Z,73.29
2022-12-20T02:31:26.532Z,73.32
2022-12-20T02:34:33.294Z,73.21
2022-12-20T02:37:36.316Z,73.18
2022-12-20T02:40:43.371Z,73.09
2022-12-20T02:44:15.230Z,73.16
2022-12-20T02:47:30.426Z,73.12
2022-12-20T02:50:38.488Z,73.14
2022-12-20T02:53:42.878Z,73.25
2022-12-20T02:56:57.425Z,73.16
2022-12-20T03:00:06.200Z,73.20
2022-12-20T03:03:25.090Z,73.17
2022-12-20T03:06:28.082Z,73.33
2022-12-20T03:09:32.974Z,73.05
2022-12-20T03:12:35.243Z,73.07
2022-12-20T03:15:37.922Z,73.14
2022-12-20T03:18:40.289Z,73.03
2022-12-20T03:21:43.125Z,73.12
2022-12-20T03:24:46.069Z,73.18
2022-12-20T03:27:48.819Z,73.13
2022-12-20T03:30:52.285Z,73.18
2022-12-20T03:33:55.351Z,73.21
2022-12-20T03:36:57.827Z,73.21
2022-12-20T03:40:00.592Z,73.25
2022-12-20T03:43:02.953Z,73.23
2022-12-20T03:46:06.086Z,73.27
2022-12-20T03:49:09.501Z,73.18
2022-12-20T03:52:16.263Z,73.37
2022-12-20T03:55:18.734Z,73.22
2022-12-20T03:58:21.843Z,73.28
2022-12-20T04:01:27.823Z,73.31
2022-12-20T04:04:31.171Z,73.32
2022-12-20T04:07:34.124Z,73.39
2022-12-20T04:10:56.611Z,73.50
2022-12-20T04:14:00.108Z,73.46
2022-12-20T04:17:03.931Z,73.76
2022-12-20T04:20:27.885Z,73.68
2022-12-20T04:23:31.461Z,73.57
2022-12-20T04:26:33.954Z,73.74
2022-12-20T04:29:38.043Z,73.73
2022-12-20T04:32:40.934Z,73.82
2022-12-20T04:35:43.603Z,73.94
2022-12-20T04:38:46.030Z,73.88
2022-12-20T04:41:48.955Z,73.98
2022-12-20T04:44:51.266Z,73.96
2022-12-20T04:47:55.399Z,73.61
2022-12-20T04:50:58.271Z,73.66
2022-12-20T04:54:01.071Z,73.52
2022-12-20T04:57:04.559Z,73.44
2022-12-20T05:00:07.834Z,73.42
2022-12-20T05:03:12.900Z,73.38
2022-12-20T05:06:16.673Z,73.39
2022-12-20T05:09:19.025Z,73.41
2022-12-20T05:12:21.656Z,73.50
2022-12-20T05:15:23.921Z,73.52
2022-12-20T05:18:28.254Z,73.52
2022-12-20T05:21:49.949Z,73.44
2022-12-20T05:25:11.272Z,73.43
2022-12-20T05:28:13.702Z,73.31
2022-12-20T05:31:16.281Z,73.54
2022-12-20T05:34:19.429Z,73.48
2022-12-20T05:37:22.934Z,73.44
2022-12-20T05:40:25.275Z,73.48
2022-12-20T05:43:27.904Z,73.31
2022-12-20T05:46:31.190Z,73.27
2022-12-20T05:49:34.630Z,73.40
2022-12-20T05:52:37.247Z,73.30
2022-12-20T05:55:49.576Z,73.42
2022-12-20T05:58:53.435Z,73.63
2022-12-20T06:01:56.262Z,73.56
2022-12-20T06:04:59.429Z,73.71
2022-12-20T06:08:01.871Z,73.55
2022-12-20T06:11:05.194Z,73.66
2022-12-20T06:14:08.037Z,73.62
2022-12-20T06:17:12.331Z,73.74
2022-12-20T06:20:14.708Z,73.86
2022-12-20T06:23:18.426Z,73.91
2022-12-20T06:26:23.481Z,73.92
2022-12-20T06:29:26.447Z,73.78
2022-12-20T06:32:29.634Z,73.85
2022-12-20T06:35:32.684Z,73.64
2022-12-20T06:38:35.069Z,73.79
2022-12-20T06:41:37.861Z,73.77
2022-12-20T06:44:40.215Z,73.76
2022-12-20T06:47:42.905Z,73.79
2022-12-20T06:50:49.221Z,73.88
2022-12-20T06:53:55.484Z,73.82
2022-12-20T06:56:58.443Z,73.69
2022-12-20T07:00:01.444Z,73.50
2022-12-20T07:03:03.988Z,73.30
2022-12-20T07:06:06.806Z,73.35
2022-12-20T07:09:17.921Z,73.22
2022-12-20T07:12:20.554Z,73.24
2022-12-20T07:15:22.827Z,73.11
2022-12-20T07:18:25.599Z,73.04
2022-12-20T07:21:28.335Z,72.80
2022-12-20T07:24:31.066Z,72.51
2022-12-20T07:27:33.351Z,72.26
2022-12-20T07:30:37.332Z,72.10
2022-12-20T07:33:53.989Z,72.18
2022-12-20T07:36:58.097Z,71.85
2022-12-20T07:40:00.450Z,71.77
2022-12-20T07:43:02.957Z,71.51
2022-12-20T07:46:06.809Z,71.31
2022-12-20T07:49:21.788Z,71.14
2022-12-20T07:52:29.419Z,70.97
2022-12-20T07:55:33.538Z,70.64
2022-12-20T07:58:39.716Z,70.37
2022-12-20T08:01:45.298Z,70.12
2022-12-20T08:04:48.899Z,69.83
2022-12-20T08:07:58.490Z,69.38
2022-12-20T08:11:03.718Z,68.80
2022-12-20T08:14:08.262Z,68.68
2022-12-20T08:17:12.001Z,68.82
2022-12-20T08:20:16.060Z,68.96
2022-12-20T08:23:19.602Z,68.96
2022-12-20T08:26:21.931Z,69.08
2022-12-20T08:29:24.678Z,68.85
2022-12-20T08:32:27.663Z,68.88
2022-12-20T08:35:31.525Z,68.85
2022-12-20T08:38:34.561Z,68.79
2022-12-20T08:41:37.683Z,67.92
2022-12-20T08:44:40.147Z,66.80
2022-12-20T08:47:43.036Z,65.28
2022-12-20T08:50:45.584Z,63.80
2022-12-20T08:53:58.591Z,62.67
2022-12-20T08:57:01.038Z,62.39
2022-12-20T09:00:04.218Z,61.31
2022-12-20T09:03:07.938Z,60.30
2022-12-20T09:06:16.471Z,59.38
2022-12-20T09:09:18.982Z,58.89
2022-12-20T09:12:21.859Z,58.31
2022-12-20T09:15:24.348Z,57.85
2022-12-20T09:18:27.016Z,56.89
2022-12-20T09:21:29.597Z,56.48
2022-12-20T09:24:32.688Z,55.50
2022-12-20T09:27:35.000Z,54.88
2022-12-20T09:30:38.635Z,54.59
2022-12-20T09:33:42.858Z,53.75
2022-12-20T09:36:46.168Z,52.71
2022-12-20T09:39:51.854Z,52.72
2022-12-20T09:42:54.755Z,51.52
2022-12-20T09:46:00.140Z,52.06
2022-12-20T09:49:04.203Z,51.72
2022-12-20T09:52:21.732Z,51.46
2022-12-20T09:55:30.183Z,51.24
2022-12-20T09:58:45.279Z,50.98
2022-12-20T10:01:50.527Z,51.13
2022-12-20T10:05:01.707Z,50.98
2022-12-20T10:08:13.096Z,50.62
2022-12-20T10:12:04.519Z,51.22
2022-12-20T10:15:15.159Z,50.75
2022-12-20T10:18:23.582Z,49.11
2022-12-20T10:21:47.586Z,48.79
2022-12-20T10:25:02.535Z,47.21
2022-12-20T10:28:25.557Z,47.07
2022-12-20T10:31:28.409Z,47.21
2022-12-20T10:34:37.335Z,46.66
2022-12-20T10:38:07.190Z,45.81
2022-12-20T10:41:22.206Z,45.54
2022-12-20T10:44:28.519Z,45.29
2022-12-20T10:47:38.027Z,46.43
2022-12-20T10:50:40.756Z,46.12
2022-12-20T10:54:03.290Z,46.28
2022-12-20T10:57:27.169Z,46.37
2022-12-20T11:00:31.133Z,46.48
2022-12-20T11:03:33.945Z,49.01
2022-12-20T11:06:39.438Z,50.20
2022-12-20T11:09:59.509Z,51.65
2022-12-20T11:13:03.794Z,52.75
2022-12-20T11:16:22.185Z,53.24
2022-12-20T11:19:38.584Z,53.21
2022-12-20T11:23:03.781Z,51.84
2022-12-20T11:26:31.998Z,50.66
2022-12-20T11:29:35.524Z,51.00
2022-12-20T11:33:07.178Z,51.38
2022-12-20T11:36:31.781Z,51.30
2022-12-20T11:39:43.180Z,51.43
2022-12-20T11:43:28.797Z,52.38
2022-12-20T11:46:52.292Z,53.05
2022-12-20T11:50:34.011Z,52.89
2022-12-20T11:53:50.814Z,52.68
2022-12-20T11:56:59.992Z,52.13
2022-12-20T12:00:02.883Z,50.88
2022-12-20T12:03:18.598Z,50.27
2022-12-20T12:06:28.992Z,49.96
2022-12-20T12:10:14.586Z,50.74
2022-12-20T12:13:35.350Z,50.22
2022-12-20T12:16:44.780Z,48.61
2022-12-20T12:19:51.197Z,48.98
2022-12-20T12:23:01.329Z,50.15
2022-12-20T12:26:25.532Z,50.97
2022-12-20T12:29:29.912Z,51.51
2022-12-20T12:32:44.194Z,52.04
2022-12-20T12:35:56.780Z,52.67
2022-12-20T12:39:14.794Z,53.22
2022-12-20T12:42:44.364Z,53.73
2022-12-20T12:45:56.046Z,54.20
2022-12-20T12:49:07.456Z,54.74
2022-12-20T12:52:33.864Z,55.42
2022-12-20T12:55:50.515Z,55.72
2022-12-20T12:59:20.755Z,56.35
2022-12-20T13:02:29.349Z,56.57
2022-12-20T13:05:34.581Z,57.00
2022-12-20T13:09:09.362Z,56.97
2022-12-20T13:12:40.582Z,57.71
2022-12-20T13:15:42.884Z,57.99
2022-12-20T13:19:10.762Z,58.22
2022-12-20T13:22:13.028Z,58.57
2022-12-20T13:25:30.631Z,58.66
2022-12-20T13:28:33.455Z,58.93
2022-12-20T13:31:36.115Z,58.93
2022-12-20T13:34:54.416Z,59.10
2022-12-20T13:38:35.756Z,58.94
2022-12-20T13:41:47.049Z,58.90
2022-12-20T13:44:53.109Z,59.12
2022-12-20T13:48:05.180Z,59.18
2022-12-20T13:51:18.077Z,59.52
2022-12-20T13:54:26.839Z,59.61
2022-12-20T13:57:50.962Z,59.64
2022-12-20T14:00:54.400Z,59.89
2022-12-20T14:03:58.234Z,59.95
2022-12-20T14:07:02.373Z,60.39
2022-12-20T14:10:18.312Z,60.09
2022-12-20T14:13:27.809Z,60.36
2022-12-20T14:16:33.059Z,60.33
2022-12-20T14:19:35.532Z,60.58
2022-12-20T14:22:42.282Z,60.61
2022-12-20T14:26:00.774Z,60.88
2022-12-20T14:29:06.682Z,60.81
2022-12-20T14:32:21.764Z,60.84
2022-12-20T14:35:25.009Z,60.91
2022-12-20T14:38:31.652Z,61.35
2022-12-20T14:41:40.252Z,62.24
2022-12-20T14:44:42.626Z,62.79
2022-12-20T14:48:03.627Z,63.22
2022-12-20T14:51:06.176Z,63.69
2022-12-20T14:54:47.734Z,63.74
2022-12-20T14:57:52.013Z,64.44
2022-12-20T15:01:04.895Z,64.59
2022-12-20T15:04:21.871Z,64.37
2022-12-20T15:07:32.153Z,64.64
2022-12-20T15:10:34.486Z,65.13
2022-12-20T15:13:43.038Z,65.22
2022-12-20T15:16:48.798Z,65.63
2022-12-20T15:19:51.412Z,65.46
2022-12-20T15:22:53.801Z,65.80
2022-12-20T15:25:56.705Z,66.06
2022-12-20T15:28:59.155Z,66.21
2022-12-20T15:32:09.416Z,66.26
2022-12-20T15:35:16.061Z,66.45
2022-12-20T15:38:34.776Z,66.49
2022-12-20T15:41:47.246Z,66.92
2022-12-20T15:44:50.602Z,67.05
2022-12-20T15:47:53.147Z,67.20
2022-12-20T15:50:58.539Z,67.11
2022-12-20T15:54:03.417Z,67.42
2022-12-20T15:57:11.475Z,67.34
2022-12-20T16:00:16.372Z,67.62
2022-12-20T16:03:23.273Z,67.55
2022-12-20T16:06:26.068Z,67.59
2022-12-20T16:09:28.876Z,67.89
2022-12-20T16:12:35.732Z,67.86
2022-12-20T16:15:38.413Z,67.95
2022-12-20T16:18:40.805Z,67.96
2022-12-20T16:21:48.932Z,67.95
2022-12-20T16:24:52.884Z,68.04
2022-12-20T16:27:56.472Z,67.59
2022-12-20T16:30:58.862Z,67.91
2022-12-20T16:34:04.250Z,68.02
2022-12-20T16:37:06.824Z,68.25
2022-12-20T16:40:10.518Z,68.54
2022-12-20T16:43:16.076Z,68.58
2022-12-20T16:46:21.408Z,68.84
2022-12-20T16:49:24.311Z,69.12
2022-12-20T16:52:28.093Z,69.07
2022-12-20T16:55:37.697Z,69.12
2022-12-20T16:59:17.136Z,69.37
2022-12-20T17:02:21.089Z,69.44
2022-12-20T17:05:33.726Z,69.73
2022-12-20T17:11:58.164Z,69.95
2022-12-20T17:15:00.611Z,69.83
2022-12-20T17:18:06.462Z,70.29
2022-12-20T17:31:59.879Z,70.45
2022-12-20T17:35:02.739Z,70.85
2022-12-20T17:38:07.605Z,70.98
2022-12-20T17:41:26.928Z,71.02
2022-12-20T17:44:31.670Z,71.08
2022-12-20T17:47:34.338Z,71.11
2022-12-20T17:50:36.711Z,71.22
2022-12-20T17:53:39.330Z,71.38
2022-12-20T17:56:41.668Z,71.55
2022-12-20T17:59:44.739Z,71.60
2022-12-20T18:02:47.198Z,71.46
2022-12-20T18:05:49.917Z,71.38
2022-12-20T18:08:57.086Z,71.58
2022-12-20T18:11:59.678Z,71.64
2022-12-20T18:15:04.074Z,71.79
2022-12-20T18:18:08.824Z,71.77
2022-12-20T18:21:16.703Z,71.94
2022-12-20T18:24:20.756Z,71.87
2022-12-20T18:27:30.170Z,71.97
2022-12-20T18:30:33.525Z,72.11
2022-12-20T18:33:36.309Z,72.16
2022-12-20T18:36:39.187Z,72.26
2022-12-20T18:39:41.943Z,72.11
2022-12-20T18:42:45.013Z,72.15
2022-12-20T18:45:47.422Z,72.19
2022-12-20T18:48:53.611Z,72.56
2022-12-20T18:51:55.946Z,72.52
2022-12-20T18:54:58.961Z,72.42
2022-12-20T18:58:01.283Z,72.28
2022-12-20T19:01:12.626Z,72.18
2022-12-20T19:04:20.832Z,72.28
2022-12-20T19:07:26.884Z,72.36
2022-12-20T19:10:33.156Z,72.34
2022-12-20T19:13:37.907Z,72.10
2022-12-20T19:16:40.433Z,72.35
2022-12-20T19:19:43.188Z,72.17
2022-12-20T19:22:45.490Z,72.09
2022-12-20T19:25:48.646Z,72.24
2022-12-20T19:28:51.483Z,72.11
2022-12-20T19:31:54.365Z,72.21
2022-12-20T19:34:56.679Z,72.29
2022-12-20T19:37:59.334Z,72.13
2022-12-20T19:41:04.433Z,72.11
2022-12-20T19:44:07.597Z,72.13
2022-12-20T19:47:09.917Z,72.08
2022-12-20T19:50:13.066Z,72.23
2022-12-20T19:53:15.522Z,72.11
2022-12-20T19:56:28.867Z,72.05
2022-12-20T19:59:31.573Z,72.08
2022-12-20T20:02:36.826Z,72.23
2022-12-20T20:05:39.566Z,72.14
2022-12-20T20:08:42.212Z,72.03
2022-12-20T20:11:44.995Z,72.04
2022-12-20T20:14:47.613Z,72.17
2022-12-20T20:17:51.272Z,72.04
2022-12-20T20:20:55.499Z,71.90
2022-12-20T20:23:59.462Z,72.00
2022-12-20T20:27:01.974Z,71.88
2022-12-20T20:30:07.123Z,71.77
2022-12-20T20:33:12.961Z,71.81
2022-12-20T20:36:22.202Z,71.51
2022-12-20T20:39:24.804Z,71.42
2022-12-20T20:42:29.361Z,71.52
2022-12-20T20:45:34.560Z,71.89
2022-12-20T20:48:38.237Z,71.59
2022-12-20T20:51:40.795Z,71.78
2022-12-20T20:54:43.585Z,71.85
2022-12-20T20:57:46.075Z,72.00
2022-12-20T21:00:51.728Z,71.94
2022-12-20T21:03:54.324Z,71.85
2022-12-20T21:06:57.995Z,71.87
2022-12-20T21:10:00.570Z,72.08
2022-12-20T21:13:03.703Z,72.11
2022-12-20T21:16:12.666Z,72.09
2022-12-20T21:19:15.662Z,72.05
2022-12-20T21:22:18.333Z,72.19
2022-12-20T21:25:24.312Z,72.19
2022-12-20T21:28:41.824Z,72.34
2022-12-20T21:31:47.777Z,72.37
2022-12-20T21:34:50.295Z,72.31
2022-12-20T21:37:53.360Z,72.18
2022-12-20T21:41:03.122Z,72.23
2022-12-20T21:44:06.015Z,72.31
2022-12-20T21:47:08.658Z,72.32
2022-12-20T21:50:14.237Z,72.29
2022-12-20T21:53:19.646Z,72.56
2022-12-20T21:56:24.141Z,72.49
2022-12-20T21:59:27.373Z,72.52
2022-12-20T22:02:30.127Z,72.49
2022-12-20T22:05:32.797Z,72.61
2022-12-20T22:08:35.860Z,72.67
2022-12-20T22:11:39.517Z,72.65
2022-12-20T22:14:41.858Z,72.76
2022-12-20T22:17:45.020Z,72.77
2022-12-20T22:20:47.702Z,72.68
2022-12-20T22:23:50.431Z,72.76
2022-12-20T22:26:52.866Z,72.81
2022-12-20T22:29:55.703Z,72.71
2022-12-20T22:32:58.365Z,72.80
2022-12-20T22:36:05.245Z,72.51
2022-12-20T22:39:08.514Z,72.57
2022-12-20T22:42:11.169Z,72.73
2022-12-20T22:45:13.784Z,72.73
2022-12-20T22:48:16.406Z,72.51
2022-12-20T22:51:21.551Z,72.41
2022-12-20T22:54:24.296Z,72.51
2022-12-20T22:57:27.736Z,72.43
2022-12-20T23:00:30.360Z,72.34
2022-12-20T23:03:32.963Z,72.29
2022-12-20T23:06:35.846Z,72.41
2022-12-20T23:09:38.220Z,72.28
2022-12-20T23:13:16.492Z,72.27
2022-12-20T23:16:19.201Z,72.37
2022-12-20T23:19:21.961Z,72.27
2022-12-20T23:22:40.374Z,71.97
2022-12-20T23:25:43.276Z,72.00
2022-12-20T23:28:45.594Z,71.89
2022-12-20T23:31:48.277Z,71.85
2022-12-20T23:34:50.866Z,71.71
2022-12-20T23:37:55.933Z,71.70
2022-12-20T23:40:58.300Z,71.68
2022-12-20T23:44:03.534Z,71.67
2022-12-20T23:47:06.049Z,71.61
2022-12-20T23:50:09.041Z,71.60
2022-12-20T23:53:15.195Z,71.53
2022-12-20T23:56:23.526Z,71.37
2022-12-20T23:59:28.315Z,71.39
